Temp     Hi    Low   Out    Dew  Wind  Wind   Wind    Hi    Hi   Wind   Heat    THW   THSW                Rain  Solar   Solar Hi Solar   UV    UV    Hi     Heat    Cool    In     In    In     In           Wind  Wind    ISS   Arc.
  Date    Time     Out   Temp   Temp   Hum    Pt. Speed   Dir    Run Speed   Dir  Chill  Index  Index  Index   Bar    Rain  Rate   Rad.  Energy    Rad.  Index  Dose   UV     D-D     D-D    Temp   Hum    Dew   Heat     ET   Samp   Tx   Recept  Int.
---------------------------------------------------------------------------------------------------------------------------------------------------------------------------------------------------------------------------------------------------------
17/04/19  13.00   17.6   17.7   17.2    61   10.0   8.0   NNE   2.01  19.3   NNE   17.6   17.1   17.1   23.6   589.0  0.00   0.0   844    18.15    851     1.4  0.15   1.4   0.008   0.000   17.3    65   10.6   16.9    0.51   397    1    100.0   15 
17/04/19  13.15   17.7   17.9   17.3    60    9.8   9.7   NNE   2.41  19.3   NNE   17.7   17.2   17.2   23.7   589.0  0.00   0.0   851    18.30    853     1.5  0.16   1.5   0.007   0.000   17.4    64   10.5   17.0    0.00   349    1    100.0   15 
17/04/19  13.30   17.8   17.8   17.4    60    9.9   9.7   NNE   2.41  19.3     N   17.8   17.3   17.3   23.8   854.3  0.00   0.0   845    18.17    860     1.5  0.16   1.5   0.006   0.000   17.6    63   10.4   17.2    0.00   351    1    100.0   15 
17/04/19  13.45   17.8   18.1   17.7    62   10.4   8.0     N   2.01  20.9   NNE   17.8   17.4   17.4   23.9   854.3  0.00   0.0   836    17.98    863     1.4  0.15   1.5   0.006   0.000   17.6    62   10.2   17.2    0.00   350    1    100.0   15 
17/04/19  14.00   17.5   17.8   17.4    61    9.9   9.7   NNE   2.41  19.3   NNE   17.5   17.0   17.0   23.4   854.3  0.00   0.0   815    17.52    853     1.2  0.13   1.3   0.009   0.000   17.7    62   10.3   17.3    0.53   351    1    100.0   15 
17/04/19  14.15   17.8   18.1   17.3    59    9.7   8.0     N   2.01  22.5   NNE   17.8   17.2   17.2   23.6   854.3  0.00   0.0   801    17.22    838     1.0  0.11   1.3   0.006   0.000   17.8    62   10.4   17.4    0.00   350    1    100.0   15 
17/04/19  14.30   17.4   17.9   17.0    61    9.8  11.3   NNE   2.82  22.5   NNE   17.4   16.9   16.9   22.8   854.3  0.00   0.0   749    16.11    840     0.8  0.09   1.2   0.009   0.000   17.9    62   10.5   17.5    0.00   351    1    100.0   15 
17/04/19  14.45   17.7   17.7   17.2    63   10.5  11.3     N   2.82  22.5     N   17.7   17.3   17.3   23.7   854.3  0.00   0.0   775    16.66    802     0.7  0.07   0.8   0.007   0.000   18.0    61   10.4   17.6    0.00   351    1    100.0   15 
17/04/19  15.00   17.7   17.9   17.3    59    9.6  11.3   NNE   2.82  20.9     N   17.7   17.1   17.1   23.7   854.3  0.00   0.0   769    16.54    793     0.5  0.05   0.7   0.007   0.000   18.1    61   10.5   17.7    0.48   351    1    100.0   15 
17/04/19  15.15   17.6   17.8   17.4    61    9.9   9.7   NNE   2.41  20.9   NNE   17.6   17.1   17.1   23.9   745.8  0.00   0.0   746    16.04    775     0.0  0.00   0.0   0.008   0.000   18.2    61   10.5   17.8    0.00   350    1    100.0   15 
17/04/19  15.30   17.6   17.8   17.3    61    9.9   9.7     N   2.41  22.5    NE   17.6   17.1   17.1   23.7   745.8  0.00   0.0   698    15.01    759     0.0  0.00   0.0   0.008   0.000   18.3    61   10.6   17.9    0.00   351    1    100.0   15 
17/04/19  15.45   17.8   17.8   17.3    59    9.7   9.7   NNE   2.41  20.9    NE   17.8   17.3   17.3   24.4   745.8  0.00   0.0   707    15.20    724     0.0  0.00   0.0   0.005   0.000   18.4    60   10.5   18.0    0.00   352    1    100.0   15 
17/04/19  16.00   17.9   17.9   17.3    61   10.3   8.0   NNE   2.01  19.3     N   17.9   17.4   17.4   24.3   745.8  0.00   0.0   644    13.85    693     0.0  0.00   0.0   0.005   0.000   18.6    60   10.6   18.1    0.46   350    1    100.0   15 
17/04/19  16.15   17.5   18.0   17.3    61    9.9   8.0   NNE   2.01  19.3    NE   17.5   17.0   17.0   23.7   745.8  0.00   0.0   594    12.77    659     0.0  0.00   0.0   0.009   0.000   18.7    60   10.8   18.3    0.00   351    1    100.0   15 
17/04/19  16.30   17.2   17.8   17.2    59    9.1   9.7   NNE   2.41  22.5   NNE   17.2   16.6   16.6   23.8   745.8  0.00   0.0   599    12.88    615     0.0  0.00   0.0   0.012   0.000   18.8    60   10.9   18.4    0.00   351    1    100.0   15 
17/04/19  16.45   17.5   17.6   17.2    58    9.1  11.3   NNE   2.82  19.3   NNE   17.5   16.9   16.9   23.9   745.8  0.00   0.0   553    11.89    577     0.0  0.00   0.0   0.009   0.000   18.9    59   10.7   18.4    0.00   351    1    100.0   15 
17/04/19  17.00   17.7   18.0   17.5    58    9.3   6.4   NNE   1.61  19.3   NNE   17.7   17.1   17.1   24.2   745.8  0.00   0.0   511    10.99    533     0.0  0.00   0.0   0.006   0.000   19.0    59   10.8   18.6    0.38   350    1    100.0   15 
17/04/19  17.15   17.3   17.9   17.1    61    9.7   9.7   NNE   2.41  20.9   NNE   17.3   16.8   16.8   23.8   745.8  0.00   0.0   468    10.06    489     0.0  0.00   0.0   0.010   0.000   19.1    58   10.6   18.6    0.00   350    1    100.0   15 
17/04/19  17.30   17.3   17.7   17.2    59    9.2   8.0   NNE   2.01  17.7   NNE   17.3   16.7   16.7   23.6   745.8  0.00   0.0   428     9.20    448     0.0  0.00   0.0   0.011   0.000   19.1    58   10.6   18.6    0.00   349    1    100.0   15 
17/04/19  17.45   17.3   17.4   17.1    61    9.7   9.7   NNE   2.41  17.7   NNE   17.3   16.7   16.7   23.3   745.8  0.00   0.0   384     8.26    404     0.0  0.00   0.0   0.011   0.000   19.1    58   10.6   18.6    0.00   351    1    100.0   15 
17/04/19  18.00   16.8   17.3   16.8    64    9.9  12.9   NNE   3.22  20.9    NE   16.2   16.3   15.7   21.4   745.8  0.00   0.0   340     7.31    360     0.0  0.00   0.0   0.016   0.000   18.9    58   10.4   18.4    0.28   352    1    100.0   15 
17/04/19  18.15   16.4   17.1   16.4    66   10.1  11.3   NNE   2.82  22.5   NNE   16.2   16.1   15.8   20.6   745.8  0.00   0.0   266     5.72    313     0.0  0.00   0.0   0.020   0.000   18.7    58   10.3   18.2    0.00   351    1    100.0   15 
17/04/19  18.30   16.6   16.6   16.4    70   11.1   8.0   NNE   2.01  22.5   NNE   16.6   16.3   16.3   17.3   745.8  0.00   0.0   215     4.62    267     0.0  0.00   0.0   0.018   0.000   18.6    59   10.4   18.1    0.00   350    1    100.0   15 
17/04/19  18.45   16.0   16.7   16.0    73   11.2  11.3   NNE   2.82  22.5     N   15.7   15.8   15.4   15.7   745.8  0.00   0.0   161     3.46    206     0.0  0.00   0.0   0.024   0.000   18.4    59   10.3   17.9    0.00   349    1    100.0   15 
17/04/19  19.00   15.8   16.0   15.8    73   10.9  12.9   NNE   3.22  25.7    NE   15.0   15.5   14.7   14.8   745.8  0.00   0.0   143     3.07    169     0.0  0.00   0.0   0.027   0.000   18.3    60   10.4   17.8    0.15   350    1    100.0   15 
17/04/19  19.15   15.6   15.8   15.6    75   11.2  12.9   NNE   3.22  22.5    NE   14.8   15.4   14.6   14.1   745.8  0.00   0.0    97     2.09    123     0.0  0.00   0.0   0.028   0.000   18.2    60   10.3   17.7    0.00   351    1    100.0   15 
17/04/19  19.30   15.2   15.6   15.2    77   11.2  14.5   NNE   3.62  25.7    NE   13.9   15.1   13.7   12.6   854.3  0.00   0.0    35     0.75     46     0.0  0.00   0.0   0.032   0.000   18.1    61   10.5   17.7    0.00   351    1    100.0   15 
17/04/19  19.45   15.1   15.2   15.1    78   11.3  12.9   NNE   3.22  25.7   NNE   14.2   14.9   14.0   12.7   854.3  0.00   0.0    20     0.43     26     0.0  0.00   0.0   0.034   0.000   18.0    61   10.4   17.6    0.00   350    1    100.0   15 
17/04/19  20.00   14.9   15.1   14.9    79   11.3   9.7   NNE   2.41  24.1   NNE   14.6   14.8   14.4   12.9   854.3  0.00   0.0     6     0.13     11     0.0  0.00   0.0   0.035   0.000   17.9    62   10.5   17.5    0.05   352    1    100.0   15 
17/04/19  20.15   14.7   14.9   14.7    81   11.4   6.4   NNE   1.61  19.3   NNE   14.7   14.6   14.6   12.9   854.3  0.00   0.0     0     0.00      0     0.0  0.00   0.0   0.038   0.000   17.8    62   10.4   17.4    0.00   350    1    100.0   15 
17/04/19  20.30   14.4   14.7   14.4    81   11.2   6.4   NNE   1.61  22.5   NNE   14.4   14.3   14.3   12.7   854.3  0.00   0.0     0     0.00      0     0.0  0.00   0.0   0.041   0.000   17.8    63   10.7   17.5    0.00   351    1    100.0   15 
17/04/19  20.45   14.3   14.4   14.3    80   10.9   4.8   NNE   1.21  17.7   NNE   14.3   14.2   14.2   12.6   854.3  0.00   0.0     0     0.00      0     0.0  0.00   0.0   0.042   0.000   17.7    63   10.6   17.3    0.00   351    1    100.0   15 
17/04/19  21.00   14.1   14.3   14.1    79   10.5   4.8   NNE   1.21  12.9   NNE   14.1   13.9   13.9   12.2   854.3  0.00   0.0     0     0.00      0     0.0  0.00   0.0   0.045   0.000   17.6    63   10.5   17.2    0.03   351    1    100.0   15 
17/04/19  21.15   14.1   14.2   14.1    78   10.3   6.4   NNE   1.61  16.1   NNE   14.1   13.8   13.8   12.1   854.3  0.00   0.0     0     0.00      0     0.0  0.00   0.0   0.045   0.000   17.6    63   10.5   17.2    0.00   351    1    100.0   15 
17/04/19  21.30   14.1   14.1   14.0    79   10.5   6.4   NNE   1.61  14.5   NNE   14.1   13.9   13.9   12.2   854.3  0.00   0.0     0     0.00      0     0.0  0.00   0.0   0.044   0.000   17.6    63   10.4   17.2    0.00   350    1    100.0   15 
17/04/19  21.45   14.0   14.2   14.0    80   10.6   3.2   NNE   0.80  11.3   NNE   14.0   13.8   13.8   12.2   854.3  0.00   0.0     0     0.00      0     0.0  0.00   0.0   0.045   0.000   17.6    63   10.4   17.2    0.00   350    1    100.0   15 
17/04/19  22.00   13.9   14.0   13.9    80   10.5   1.6   NNE   0.40   9.7   NNE   13.9   13.7   13.7   12.0   854.3  0.00   0.0     0     0.00      0     0.0  0.00   0.0   0.046   0.000   17.6    63   10.4   17.2    0.03   351    1    100.0   15 
17/04/19  22.15   13.6   13.9   13.6    80   10.2   0.0   ---   0.00   0.0   ---   13.6   13.4   13.4   11.7   854.3  0.00   0.0     0     0.00      0     0.0  0.00   0.0   0.050   0.000   17.4    63   10.3   17.1    0.00   351    1    100.0   15 
17/04/19  22.30   13.1   13.6   13.1    76    8.9   0.0   ---   0.00   0.0   ---   13.1   12.8   12.8   11.1   854.3  0.00   0.0     0     0.00      0     0.0  0.00   0.0   0.055   0.000   17.4    63   10.3   17.1    0.00   350    1    100.0   15 
17/04/19  22.45   12.6   13.1   12.6    74    8.1   0.0   ---   0.00   0.0   ---   12.6   12.3   12.3   10.5   800.1  0.00   0.0     0     0.00      0     0.0  0.00   0.0   0.060   0.000   17.4    62   10.0   16.9    0.00   351    1    100.0   15 
17/04/19  23.00   12.5   12.9   12.5    74    8.0   0.0   NNE   0.00   3.2   NNE   12.5   12.2   12.2   10.4   745.8  0.00   0.0     0     0.00      0     0.0  0.00   0.0   0.061   0.000   17.4    62   10.0   16.9    0.03   349    1    100.0   15 
17/04/19  23.15   12.3   12.5   12.2    74    7.8   0.0   ---   0.00   0.0   ---   12.3   12.0   12.0   10.2   745.2  0.00   0.0     0     0.00      0     0.0  0.00   0.0   0.063   0.000   17.4    61    9.8   16.9    0.00   351    1    100.0   15 
17/04/19  23.30   12.3   12.4   12.2    73    7.6   0.0   NNE   0.00   1.6   NNE   12.3   11.9   11.9   10.1   745.2  0.00   0.0     0     0.00      0     0.0  0.00   0.0   0.063   0.000   17.3    61    9.7   16.7    0.00   351    1    100.0   15 
17/04/19  23.45   11.8   12.3   11.8    74    7.3   0.0   NNE   0.00   1.6   NNE   11.8   11.6   11.6    9.7   745.2  0.00   0.0     0     0.00      0     0.0  0.00   0.0   0.068   0.000   17.3    61    9.7   16.7    0.00   350    1    100.0   15 
18/04/19  00.00   12.0   12.1   11.8    74    7.5   0.0   NNE   0.00   3.2   NNE   12.0   11.7   11.7    9.9   745.2  0.00   0.0     0     0.00      0     0.0  0.00   0.0   0.066   0.000   17.2    61    9.6   16.7    0.03   350    1    100.0   15 
18/04/19   0.15   12.0   12.1   11.9    74    7.5   0.0   NNE   0.00   1.6   NNE   12.0   11.7   11.7    9.9   551.5  0.00   0.0     0     0.00      0     0.0  0.00   0.0   0.066   0.000   17.2    61    9.6   16.7    0.00   349    1    100.0   15 
18/04/19   0.30   11.6   12.0   11.6    75    7.3   0.0   NNE   0.00   1.6   NNE   11.6   11.3   11.3    9.4   551.5  0.00   0.0     0     0.00      0     0.0  0.00   0.0   0.071   0.000   17.2    60    9.4   16.6    0.00   349    1    100.0   15 
18/04/19   0.45   10.9   11.6   10.9    77    7.0   0.0   ---   0.00   0.0   ---   10.9   10.7   10.7    8.9   685.2  0.00   0.0     0     0.00      0     0.0  0.00   0.0   0.078   0.000   17.1    60    9.3   16.5    0.00   352    1    100.0   15 
18/04/19   1.00   10.4   10.9   10.4    79    7.0   0.0   ---   0.00   0.0   ---   10.4   10.4   10.4    8.6   685.2  0.00   0.0     0     0.00      0     0.0  0.00   0.0   0.082   0.000   17.1    60    9.3   16.5    0.03   351    1    100.0   15 
18/04/19   1.15   10.7   10.7   10.3    80    7.4   0.0   ---   0.00   0.0   ---   10.7   10.6   10.6    8.8   685.2  0.00   0.0     0     0.00      0     0.0  0.00   0.0   0.080   0.000   17.0    60    9.2   16.4    0.00   351    1    100.0   15 
18/04/19   1.30   10.3   10.7   10.3    81    7.2   0.0   NNE   0.00   1.6   NNE   10.3   10.3   10.3    8.5   685.2  0.00   0.0     0     0.00      0     0.0  0.00   0.0   0.083   0.000   17.0    60    9.2   16.4    0.00   350    1    100.0   15 
18/04/19   1.45   10.3   10.5   10.3    80    7.0   0.0   NNE   0.00   3.2   NNE   10.3   10.3   10.3    8.4   685.2  0.00   0.0     0     0.00      0     0.0  0.00   0.0   0.084   0.000   16.9    60    9.1   16.3    0.00   348    1    100.0   15 
18/04/19   2.00    9.6   10.3    9.6    81    6.5   0.0   NNE   0.00   3.2   NNE    9.6    9.6    9.6    7.7   685.2  0.00   0.0     0     0.00      0     0.0  0.00   0.0   0.091   0.000   16.9    60    9.1   16.3    0.00   352    1    100.0   15 
18/04/19   2.15    9.6    9.7    9.6    82    6.6   0.0   ---   0.00   0.0   ---    9.6    9.6    9.6    7.7   685.2  0.00   0.0     0     0.00      0     0.0  0.00   0.0   0.091   0.000   16.8    60    9.0   16.2    0.00   351    1    100.0   15 
18/04/19   2.30    9.0    9.6    8.9    83    6.3   0.0   NNE   0.00   1.6   NNE    9.0    9.0    9.0    7.1   685.2  0.00   0.0     0     0.00      0     0.0  0.00   0.0   0.097   0.000   16.8    59    8.8   16.2    0.00   350    1    100.0   15 
18/04/19   2.45    9.6    9.6    8.6    85    7.2   0.0   NNE   0.00   1.6   NNE    9.6    9.6    9.6    7.8   685.2  0.00   0.0     0     0.00      0     0.0  0.00   0.0   0.091   0.000   16.8    59    8.7   16.1    0.00   350    1    100.0   15 
18/04/19   3.00   12.8   12.8    9.6    83   10.0   1.6   NNE   0.40   6.4   NNE   12.8   12.7   12.7   10.9   685.2  0.00   0.0     0     0.00      0     0.0  0.00   0.0   0.058   0.000   16.8    60    9.0   16.1    0.00   352    1    100.0   15 
18/04/19   3.15   12.7   13.4   12.7    81    9.5   1.6   NNE   0.40   8.0   NNE   12.7   12.5   12.5   10.8   685.2  0.00   0.0     0     0.00      0     0.0  0.00   0.0   0.059   0.000   16.8    60    9.0   16.1    0.00   350    1    100.0   15 
18/04/19   3.30   12.7   12.7   12.2    83    9.9   1.6   NNE   0.40   6.4   NNE   12.7   12.6   12.6   10.9   685.2  0.00   0.0     0     0.00      0     0.0  0.00   0.0   0.058   0.000   16.8    61    9.2   16.2    0.00   351    1    100.0   15 
18/04/19   3.45   12.8   13.6   12.4    82    9.8   3.2   NNE   0.80   8.0   NNE   12.8   12.7   12.7   10.9   685.2  0.00   0.0     0     0.00      0     0.0  0.00   0.0   0.058   0.000   16.8    61    9.2   16.2    0.00   350    1    100.0   15 
18/04/19   4.00   12.4   13.4   12.4    84    9.8   4.8   NNE   1.21  14.5   NNE   12.4   12.4   12.4   10.7   685.2  0.00   0.0     0     0.00      0     0.0  0.00   0.0   0.061   0.000   16.7    61    9.1   16.1    0.03   352    1    100.0   15 
18/04/19   4.15   12.1   12.4   12.1    86    9.8   0.0   NNE   0.00   6.4   NNE   12.1   12.1   12.1   10.3   685.2  0.00   0.0     0     0.00      0     0.0  0.00   0.0   0.065   0.000   16.7    62    9.3   16.1    0.00   349    1    100.0   15 
18/04/19   4.30   12.2   12.2   12.1    88   10.3   4.8   NNE   1.21   8.0   NNE   12.2   12.2   12.2   10.5   685.2  0.00   0.0     0     0.00      0     0.0  0.00   0.0   0.064   0.000   16.7    63    9.6   16.2    0.00   351    1    100.0   15 
18/04/19   4.45   12.7   12.7   12.2    88   10.7   4.8   NNE   1.21   9.7   NNE   12.7   12.7   12.7   11.0   685.2  0.00   0.0     0     0.00      0     0.0  0.00   0.0   0.059   0.000   16.7    63    9.6   16.2    0.00   351    1    100.0   15 
18/04/19   5.00   12.7   12.7   12.6    89   10.9   1.6   NNE   0.40   9.7   NNE   12.7   12.7   12.7   11.1   685.2  0.00   0.0     0     0.00      0     0.0  0.00   0.0   0.059   0.000   16.7    64    9.8   16.2    0.00   350    1    100.0   15 
18/04/19   5.15   12.8   12.8   12.6    89   11.0   3.2   NNE   0.80   8.0   NNE   12.8   12.8   12.8   11.2   685.2  0.00   0.0     0     0.00      0     0.0  0.00   0.0   0.058   0.000   16.7    64    9.8   16.2    0.00   352    1    100.0   15 
18/04/19   5.30   11.9   12.8   11.9    89   10.1   1.6   NNE   0.40   6.4   NNE   11.9   11.9   11.9   10.2  1061.8  0.00   0.0     0     0.00      0     0.0  0.00   0.0   0.067   0.000   16.7    65   10.1   16.3    0.00   351    1    100.0   15 
18/04/19   5.45   10.8   11.8   10.8    89    9.0   0.0   ---   0.00   0.0   ---   10.8   10.9   10.9    9.2  1061.8  0.00   0.0     0     0.00      0     0.0  0.00   0.0   0.079   0.000   16.7    65   10.1   16.3    0.00   351    1    100.0   15 
18/04/19   6.00   10.6   10.9   10.6    89    8.9   0.0   ---   0.00   0.0   ---   10.6   10.7   10.7    8.9  1060.9  0.00   0.0     0     0.00      0     0.0  0.00   0.0   0.080   0.000   16.7    64    9.8   16.2    0.00   350    1    100.0   15 
18/04/19   6.15    9.9   10.7    9.8    89    8.2   0.0   ---   0.00   0.0   ---    9.9   10.1   10.1    8.3  1060.9  0.00   0.0     0     0.00      0     0.0  0.00   0.0   0.087   0.000   16.7    64    9.8   16.2    0.00   352    1    100.0   15 
18/04/19   6.30    9.7    9.9    9.6    89    8.0   0.0   ---   0.00   0.0   ---    9.7    9.9    9.9    8.1  1060.9  0.00   0.0     0     0.00      0     0.0  0.00   0.0   0.090   0.000   16.6    64    9.8   16.2    0.00   351    1    100.0   15 
18/04/19   6.45    9.8    9.8    9.4    89    8.1   0.0   ---   0.00   0.0   ---    9.8    9.9    9.9    8.2  1060.9  0.00   0.0     7     0.15     11     0.0  0.00   0.0   0.089   0.000   16.6    63    9.5   16.1    0.00   351    1    100.0   15 
18/04/19   7.00    9.6    9.8    9.5    89    7.8   0.0   ---   0.00   0.0   ---    9.6    9.7    9.7    8.2  1060.9  0.00   0.0    19     0.41     25     0.0  0.00   0.0   0.091   0.000   16.6    63    9.5   16.1    0.00   351    1    100.0   15 
18/04/19   7.15    9.5    9.6    9.4    89    7.8   0.0   ---   0.00   0.0   ---    9.5    9.7    9.7    8.2  1060.9  0.00   0.0    33     0.71     56     0.0  0.00   0.0   0.092   0.000   16.6    63    9.5   16.1    0.00   350    1    100.0   15 
18/04/19   7.30   10.0   10.0    9.5    89    8.3   0.0   NNE   0.00   1.6   NNE   10.0   10.2   10.2    9.3  1060.9  0.00   0.0    78     1.68     97     0.0  0.00   0.0   0.087   0.000   16.5    63    9.4   16.0    0.00   351    1    100.0   15 
18/04/19   7.45   10.5   10.5   10.0    89    8.8   0.0   ---   0.00   0.0   ---   10.5   10.6   10.6   10.2  1060.9  0.00   0.0   118     2.54    139     0.0  0.00   0.0   0.082   0.000   16.6    63    9.5   16.1    0.00   350    1    100.0   15 
18/04/19   8.00   11.1   11.1   10.5    89    9.4   0.0   ---   0.00   0.0   ---   11.1   11.2   11.2   11.4  1060.9  0.00   0.0   165     3.55    190     0.0  0.00   0.0   0.075   0.000   16.6    63    9.5   16.1    0.05   351    1    100.0   15 
18/04/19   8.15   12.6   12.6   11.1    86   10.3   0.0   NNE   0.00   1.6   NNE   12.6   12.6   12.6   16.4  1060.9  0.00   0.0   226     4.86    253     0.0  0.00   0.0   0.060   0.000   16.6    63    9.5   16.1    0.00   350    1    100.0   15 
18/04/19   8.30   13.5   13.5   12.6    85   11.0   0.0   ---   0.00   0.0   ---   13.5   13.4   13.4   18.1  1060.9  0.00   0.0   277     5.96    299     0.0  0.00   0.0   0.050   0.000   16.7    64    9.8   16.2    0.00   350    1    100.0   15 
18/04/19   8.45   15.6   15.6   13.5    73   10.7   0.0   ---   0.00   0.0   ---   15.6   15.3   15.3   20.6  1060.9  0.00   0.0   324     6.97    348     0.0  0.00   0.0   0.029   0.000   16.8    64    9.9   16.3    0.00   350    1    100.0   15 
18/04/19   9.00   17.2   17.2   15.6    62    9.8   0.0   ---   0.00   0.0   ---   17.2   16.7   16.7   22.3  1060.9  0.00   0.0   370     7.96    392     0.0  0.00   0.0   0.012   0.000   16.8    62    9.5   16.3    0.15   350    1    100.0   15 
18/04/19   9.15   18.0   18.0   17.2    52    8.0   0.0    NE   0.00   1.6   NNE   18.0   17.1   17.1   23.0  1060.9  0.00   0.0   417     8.97    439     0.0  0.00   0.0   0.003   0.000   16.9    61    9.4   16.4    0.00   351    1    100.0   15 
18/04/19   9.30   18.0   18.3   18.0    49    7.1   0.0   ESE   0.00   4.8   ESE   18.0   17.0   17.0   23.1   681.8  0.00   0.0   463     9.96    485     0.0  0.00   0.0   0.003   0.000   17.1    59    9.0   16.4    0.00   352    1    100.0   15 
18/04/19   9.45   18.1   18.4   18.0    54    8.6   3.2    SE   0.80   9.7    SE   18.1   17.3   17.3   23.6   681.8  0.00   0.0   508    10.92    529     0.0  0.00   0.0   0.003   0.000   17.2    56    8.4   16.5    0.00   350    1    100.0   15 
18/04/19  10.00   17.1   18.1   17.1    69   11.3   3.2    SE   0.80  14.5    SE   17.1   16.8   16.8   23.3   745.8  0.00   0.0   550    11.83    573     0.0  0.00   0.0   0.013   0.000   17.4    59    9.3   16.8    0.30   319    1     93.3   15 
18/04/19  10.15   17.4   17.8   16.9    74   12.7   1.6    SE   0.40   9.7    SE   17.4   17.3   17.3   24.0   854.3  0.00   0.0   591    12.71    608     0.0  0.00   0.0   0.010   0.000   17.4    63   10.3   17.1    0.00   346    1    100.0   15 
18/04/19  10.30   16.8   17.4   16.8    77   12.8   3.2   SSE   0.80   9.7    SE   16.8   16.8   16.8   23.5   854.3  0.00   0.0   628    13.50    647     0.0  0.00   0.0   0.016   0.000   17.6    67   11.4   17.3    0.00   352    1    100.0   15 
18/04/19  10.45   16.3   16.8   16.3    79   12.6   6.4   SSE   1.61  14.5   SSE   16.3   16.3   16.3   22.9   854.3  0.00   0.0   665    14.30    682     0.0  0.00   0.0   0.021   0.000   17.6    68   11.6   17.4    0.00   349    1    100.0   15 
18/04/19  11.00   16.2   16.4   16.1    78   12.4   4.8     S   1.21  11.3     S   16.2   16.2   16.2   22.8   854.3  0.00   0.0   694    14.92    708     0.0  0.00   0.0   0.022   0.000   17.6    67   11.4   17.4    0.38   351    1    100.0   15 
18/04/19  11.15   16.6   16.9   16.2    73   11.7   4.8     S   1.21   9.7     S   16.6   16.4   16.4   23.1   854.3  0.00   0.0   725    15.59    742     0.0  0.00   0.0   0.018   0.000   17.7    66   11.3   17.5    0.00   349    1    100.0   15 
18/04/19  11.30   16.9   16.9   16.3    64   10.0   6.4    SW   1.61  11.3    SW   16.9   16.4   16.4   23.0   854.3  0.00   0.0   756    16.26    770     0.1  0.01   0.5   0.015   0.000   17.8    63   10.7   17.5    0.00   351    1    100.0   15 
© www.elbaexplorer.com